Time,TemperatureF,DewpointF,PressureIn,WindDirection,WindDirectionDegrees,WindSpeedMPH,WindSpeedGustMPH,Humidity,HourlyPrecipIn,Conditions,Clouds,dailyrainin,SoftwareType,DateUTC
2013-02-09 00:00:00,28.5,21.6,29.84,NW,320,0.0,0.0,75,0.00,,,0.00,Wunderground v.1.15,2013-02-09 07:00:00,
2013-02-09 00:30:00,27.3,21.0,29.84,WNW,303,0.0,0.0,77,0.00,,,0.00,Wunderground v.1.15,2013-02-09 07:30:00,
2013-02-09 01:00:00,26.9,21.3,29.83,NNW,327,0.0,0.0,79,0.00,,,0.00,Wunderground v.1.15,2013-02-09 08:00:00,
2013-02-09 01:30:00,26.3,21.0,29.84,NNW,338,0.0,0.0,80,0.00,,,0.00,Wunderground v.1.15,2013-02-09 08:30:00,
2013-02-09 02:00:00,25.4,20.7,29.84,North,351,0.0,0.0,82,0.00,,,0.00,Wunderground v.1.15,2013-02-09 09:00:00,
2013-02-09 02:30:00,25.0,20.8,29.83,NNW,328,0.0,0.0,84,0.00,,,0.00,Wunderground v.1.15,2013-02-09 09:30:00,
2013-02-09 03:00:00,25.3,21.4,29.83,NW,311,3.0,3.0,85,0.00,,,0.00,Wunderground v.1.15,2013-02-09 10:00:00,
2013-02-09 03:30:00,25.6,22.0,29.83,North,5,0.0,0.0,86,0.00,,,0.00,Wunderground v.1.15,2013-02-09 10:30:00,
2013-02-09 04:00:00,25.8,21.9,29.83,NW,324,0.0,0.0,85,0.00,,,0.00,Wunderground v.1.15,2013-02-09 11:00:00,
2013-02-09 04:30:00,25.6,21.7,29.83,NNW,331,0.0,0.0,85,0.00,,,0.00,Wunderground v.1.15,2013-02-09 11:30:00,
2013-02-09 05:00:00,25.8,21.9,29.83,NW,324,0.0,0.0,85,0.00,,,0.00,Wunderground v.1.15,2013-02-09 12:00:00,
2013-02-09 05:30:00,26.7,23.1,29.82,NNE,16,2.0,5.0,86,0.00,,,0.00,Wunderground v.1.15,2013-02-09 12:30:00,
2013-02-09 06:00:00,25.6,22.0,29.81,NW,312,0.0,0.0,86,0.00,,,0.00,Wunderground v.1.15,2013-02-09 13:00:00,
2013-02-09 06:30:00,26.6,23.0,29.81,NNW,333,3.0,3.0,86,0.00,,,0.00,Wunderground v.1.15,2013-02-09 13:30:00,
2013-02-09 07:00:00,25.7,22.1,29.82,NW,314,1.0,1.0,86,0.00,,,0.00,Wunderground v.1.15,2013-02-09 14:00:00,
2013-02-09 07:30:00,24.5,20.9,29.82,NNW,341,0.0,0.0,86,0.00,,,0.00,Wunderground v.1.15,2013-02-09 14:30:00,
2013-02-09 08:00:00,24.4,21.1,29.83,NNE,27,0.0,4.0,87,0.00,,,0.00,Wunderground v.1.15,2013-02-09 15:00:00,
2013-02-09 08:30:00,25.1,21.8,29.83,NNE,29,2.0,2.0,87,0.00,,,0.00,Wunderground v.1.15,2013-02-09 15:30:00,
2013-02-09 09:00:00,26.6,23.3,29.82,NNW,338,3.0,3.0,87,0.00,,,0.00,Wunderground v.1.15,2013-02-09 16:00:00,
2013-02-09 09:30:00,26.9,23.0,29.83,NNW,341,3.0,7.0,85,0.00,,,0.00,Wunderground v.1.15,2013-02-09 16:30:00,
2013-02-09 10:00:00,27.0,23.6,29.82,North,349,3.0,3.0,87,0.00,,,0.00,Wunderground v.1.15,2013-02-09 17:00:00,
2013-02-09 10:30:00,31.0,26.4,29.82,North,360,5.0,7.0,83,0.00,,,0.00,Wunderground v.1.15,2013-02-09 17:30:00,
2013-02-09 11:00:00,35.0,27.5,29.80,WNW,289,5.0,9.0,74,0.00,,,0.00,Wunderground v.1.15,2013-02-09 18:00:00,
2013-02-09 11:30:00,36.9,23.1,29.80,NNW,336,5.0,6.0,57,0.00,,,0.00,Wunderground v.1.15,2013-02-09 18:30:00,
2013-02-09 12:00:00,38.3,22.6,29.78,North,10,6.0,6.0,53,0.00,,,0.00,Wunderground v.1.15,2013-02-09 19:00:00,
2013-02-09 12:30:00,39.1,20.5,29.75,NW,322,6.0,6.0,47,0.00,,,0.00,Wunderground v.1.15,2013-02-09 19:30:00,
2013-02-09 13:00:00,39.3,20.2,29.75,North,355,5.0,5.0,46,0.00,,,0.00,Wunderground v.1.15,2013-02-09 20:00:00,
2013-02-09 13:30:00,39.5,20.4,29.74,ENE,65,6.0,7.0,46,0.00,,,0.00,Wunderground v.1.15,2013-02-09 20:30:00,
2013-02-09 14:00:00,37.5,21.0,29.72,NE,53,5.0,5.0,51,0.00,,,0.00,Wunderground v.1.15,2013-02-09 21:00:00,
2013-02-09 14:30:00,38.5,21.9,29.72,East,83,5.0,12.0,51,0.00,,,0.00,Wunderground v.1.15,2013-02-09 21:30:00,
2013-02-09 15:00:00,37.3,21.7,29.71,WNW,299,5.0,6.0,53,0.00,,,0.00,Wunderground v.1.15,2013-02-09 22:00:00,
2013-02-09 15:30:00,36.8,21.7,29.71,WNW,301,4.0,6.0,54,0.00,,,0.00,Wunderground v.1.15,2013-02-09 22:30:00,
2013-02-09 16:00:00,35.8,21.6,29.72,WNW,291,5.0,7.0,56,0.00,,,0.00,Wunderground v.1.15,2013-02-09 23:00:00,
2013-02-09 16:30:00,35.6,21.9,29.72,NNW,345,3.0,3.0,57,0.00,,,0.00,Wunderground v.1.15,2013-02-09 23:30:00,
2013-02-09 17:00:00,34.6,20.1,29.73,NNE,14,3.0,3.0,55,0.00,,,0.00,Wunderground v.1.15,2013-02-10 00:00:00,
2013-02-09 17:30:00,33.7,20.1,29.74,NW,310,2.0,3.0,57,0.00,,,0.00,Wunderground v.1.15,2013-02-10 00:30:00,
2013-02-09 18:00:00,33.2,19.2,29.74,NW,325,3.0,3.0,56,0.00,,,0.00,Wunderground v.1.15,2013-02-10 01:00:00,
2013-02-09 18:30:00,33.1,18.7,29.74,NE,36,4.0,4.0,55,0.00,,,0.00,Wunderground v.1.15,2013-02-10 01:30:00,
2013-02-09 19:00:00,32.4,18.8,29.74,NNW,328,2.0,3.0,57,0.00,,,0.00,Wunderground v.1.15,2013-02-10 02:00:00,
2013-02-09 19:30:00,31.8,19.1,29.73,WNW,293,4.0,4.0,59,0.00,,,0.00,Wunderground v.1.15,2013-02-10 02:30:00,
2013-02-09 20:00:00,31.0,18.7,29.71,NW,311,5.0,6.0,60,0.00,,,0.00,Wunderground v.1.15,2013-02-10 03:00:00,
2013-02-09 20:30:00,30.7,18.8,29.73,North,351,3.0,4.0,61,0.00,,,0.00,Wunderground v.1.15,2013-02-10 03:30:00,
2013-02-09 21:00:00,30.3,18.8,29.73,NNW,334,3.0,3.0,62,0.00,,,0.00,Wunderground v.1.15,2013-02-10 04:00:00,
2013-02-09 21:30:00,30.1,19.4,29.73,NNW,332,5.0,9.0,64,0.00,,,0.00,Wunderground v.1.15,2013-02-10 04:30:00,
2013-02-09 22:00:00,30.3,18.8,29.72,NW,321,7.0,10.0,62,0.00,,,0.00,Wunderground v.1.15,2013-02-10 05:00:00,
2013-02-09 22:30:00,30.3,18.5,29.72,West,274,5.0,5.0,61,0.00,,,0.00,Wunderground v.1.15,2013-02-10 05:30:00,
2013-02-09 23:00:00,30.4,17.4,29.71,NW,310,5.0,5.0,58,0.00,,,0.00,Wunderground v.1.15,2013-02-10 06:00:00,
2013-02-09 23:30:00,30.1,17.5,29.71,NW,318,6.0,6.0,59,0.00,,,0.00,Wunderground v.1.15,2013-02-10 06:30:00,